Time;durP1;ratioP1;P1;durP2;ratioP2;P2;SDS_P1;SDS_P2;PMS_P1;PMS_P2;Temp;Humidity;BMP_temperature;BMP_pressure;BME280_temperature;BME280_humidity;BME280_pressure;Samples;Min_cycle;Max_cycle;Signal;HPM_P1;HPM_P2
2022/04/02 00:00:33;;;;;;;8.1;10.7;;;;;;;0.8;82.6;97100;;;;
2022/04/02 00:10:33;;;;;;;8.1;10.7;;;;;;;0.8;82.9;97090;;;;
2022/04/02 00:21:33;;;;;;;8.1;10.7;;;;;;;0.7;82.4;97090;;;;
2022/04/02 00:31:33;;;;;;;8.6;10.9;;;;;;;0.6;81.9;97090;;;;
2022/04/02 00:41:34;;;;;;;8.6;10.9;;;;;;;0.6;82.4;97100;;;;
2022/04/02 00:51:33;;;;;;;8.6;10.9;;;;;;;0.7;82.8;97110;;;;
2022/04/02 01:02:34;;;;;;;7.4;9.7;;;;;;;0.7;82.9;97120;;;;
2022/04/02 01:13:34;;;;;;;7.4;9.7;;;;;;;0.7;82.7;97120;;;;
2022/04/02 01:24:33;;;;;;;7.4;9.7;;;;;;;0.7;82.5;97120;;;;
2022/04/02 01:34:34;;;;;;;8.1;12.4;;;;;;;0.6;82.4;97120;;;;
2022/04/02 01:44:33;;;;;;;8.1;12.4;;;;;;;0.6;82.7;97120;;;;
2022/04/02 01:55:33;;;;;;;8.1;12.4;;;;;;;0.6;82.9;97120;;;;
2022/04/02 02:06:33;;;;;;;7.6;10.7;;;;;;;0.6;83;97130;;;;
2022/04/02 02:16:33;;;;;;;7.6;10.7;;;;;;;0.6;82.6;97140;;;;
2022/04/02 02:27:34;;;;;;;7.6;10.7;;;;;;;0.6;82.7;97140;;;;
2022/04/02 02:37:34;;;;;;;7.4;11.3;;;;;;;0.6;82.5;97140;;;;
2022/04/02 02:47:33;;;;;;;7.4;11.3;;;;;;;0.6;82.6;97140;;;;
2022/04/02 02:58:33;;;;;;;7.4;11.3;;;;;;;0.6;82.7;97140;;;;
2022/04/02 03:09:33;;;;;;;8.6;13.1;;;;;;;0.6;82.7;97150;;;;
2022/04/02 03:20:33;;;;;;;8.6;13.1;;;;;;;0.6;82.9;97150;;;;
2022/04/02 03:30:33;;;;;;;7.9;11;;;;;;;0.5;83.2;97150;;;;
2022/04/02 03:40:33;;;;;;;7.9;11;;;;;;;0.4;83.3;97150;;;;
2022/04/02 03:51:33;;;;;;;7.9;11;;;;;;;0.4;83.3;97160;;;;
2022/04/02 04:01:33;;;;;;;7.2;9.5;;;;;;;0.4;83.5;97170;;;;
2022/04/02 04:12:34;;;;;;;7.2;9.5;;;;;;;0.4;82.8;97180;;;;
2022/04/02 04:22:33;;;;;;;7.2;9.5;;;;;;;0.6;83.7;97190;;;;
2022/04/02 04:32:33;;;;;;;7.2;9.9;;;;;;;0.6;83.4;97190;;;;
2022/04/02 04:43:35;;;;;;;7.2;9.9;;;;;;;0.7;83.1;97200;;;;
2022/04/02 04:53:34;;;;;;;7.2;9.9;;;;;;;0.7;82.7;97200;;;;
2022/04/02 05:04:34;;;;;;;6.7;8.9;;;;;;;0.6;82.1;97210;;;;
2022/04/02 05:15:34;;;;;;;6.7;8.9;;;;;;;0.7;82.8;97210;;;;
2022/04/02 05:25:33;;;;;;;6.7;8.9;;;;;;;0.7;82.3;97220;;;;
2022/04/02 05:35:33;;;;;;;6.8;9.7;;;;;;;0.6;82;97230;;;;
2022/04/02 05:45:33;;;;;;;6.8;9.7;;;;;;;0.8;82.9;97240;;;;
2022/04/02 05:56:34;;;;;;;6.8;9.7;;;;;;;0.9;82.7;97250;;;;
2022/04/02 06:06:34;;;;;;;7;10.1;;;;;;;1.1;82.6;97250;;;;
2022/04/02 06:17:33;;;;;;;7;10.1;;;;;;;1.2;81.7;97260;;;;
2022/04/02 06:27:33;;;;;;;7;10.1;;;;;;;1.3;80.8;97260;;;;
2022/04/02 06:37:34;;;;;;;6.8;9.9;;;;;;;1.4;80.8;97270;;;;
2022/04/02 06:47:33;;;;;;;6.8;9.9;;;;;;;1.6;80.5;97270;;;;
2022/04/02 06:58:33;;;;;;;7.9;10.2;;;;;;;1.6;80.5;97280;;;;
2022/04/02 07:09:33;;;;;;;7.9;10.2;;;;;;;1.7;79.9;97290;;;;
2022/04/02 07:19:34;;;;;;;7.9;10.2;;;;;;;1.9;78.4;97290;;;;
2022/04/02 07:30:33;;;;;;;8.7;11.7;;;;;;;2;78.2;97300;;;;
2022/04/02 07:40:33;;;;;;;8.7;11.7;;;;;;;2;77.4;97310;;;;
2022/04/02 07:50:33;;;;;;;8.7;11.7;;;;;;;1.7;76.4;97320;;;;
2022/04/02 08:00:33;;;;;;;7.6;9.3;;;;;;;1.7;77;97330;;;;
2022/04/02 08:10:35;;;;;;;7.6;9.3;;;;;;;1.8;76.4;97340;;;;
2022/04/02 08:21:34;;;;;;;7.6;9.3;;;;;;;1.8;76.7;97350;;;;
2022/04/02 08:31:33;;;;;;;8.1;11.9;;;;;;;1.9;76.9;97360;;;;
2022/04/02 08:42:35;;;;;;;8.1;11.9;;;;;;;2;77.2;97360;;;;
2022/04/02 08:52:34;;;;;;;8.1;11.9;;;;;;;1.8;75.9;97360;;;;
2022/04/02 09:02:34;;;;;;;9.4;11.5;;;;;;;1.5;76.8;97380;;;;
2022/04/02 09:13:33;;;;;;;9.4;11.5;;;;;;;1.4;77.5;97390;;;;
2022/04/02 09:24:34;;;;;;;9.4;11.5;;;;;;;1.3;77.1;97400;;;;
2022/04/02 09:35:34;;;;;;;10.5;13;;;;;;;1.3;77.4;97400;;;;
2022/04/02 09:45:34;;;;;;;10.5;13;;;;;;;1.3;77.2;97410;;;;
2022/04/02 09:56:33;;;;;;;10.5;13;;;;;;;1.3;77;97420;;;;
2022/04/02 10:06:33;;;;;;;9.6;12.3;;;;;;;1.5;76.3;97420;;;;
2022/04/02 10:16:35;;;;;;;9.6;12.3;;;;;;;1.6;75.6;97430;;;;
2022/04/02 10:26:33;;;;;;;9.6;12.3;;;;;;;2;75.7;97430;;;;
2022/04/02 10:37:33;;;;;;;10.1;13.9;;;;;;;1.7;75.6;97440;;;;
2022/04/02 10:47:34;;;;;;;10.1;13.9;;;;;;;1.9;75.1;97450;;;;
2022/04/02 10:58:34;;;;;;;10.1;12.6;;;;;;;1.9;76.3;97450;;;;
2022/04/02 11:08:34;;;;;;;10.1;12.6;;;;;;;1.7;76.4;97460;;;;
2022/04/02 11:20:05;;;;;;;10.1;12.6;;;;;;;1.6;75.5;97470;;;;
2022/04/02 11:29:34;;;;;;;11.8;13.9;;;;;;;1.6;75.6;97480;;;;
2022/04/02 11:39:34;;;;;;;11.8;13.9;;;;;;;1.5;75.8;97490;;;;
2022/04/02 11:49:34;;;;;;;11.8;13.9;;;;;;;1.3;75.3;97490;;;;
2022/04/02 11:59:34;;;;;;;11.1;13.6;;;;;;;1.1;75.7;97500;;;;
2022/04/02 12:10:36;;;;;;;11.1;13.6;;;;;;;1.2;76.2;97510;;;;
2022/04/02 12:20:35;;;;;;;11.1;13.6;;;;;;;1.4;76.4;97510;;;;
2022/04/02 12:31:35;;;;;;;10.4;13.8;;;;;;;1.2;75.4;97530;;;;
2022/04/02 12:41:36;;;;;;;10.4;13.8;;;;;;;1.4;75.5;97530;;;;
2022/04/02 12:51:34;;;;;;;10.4;13.8;;;;;;;1.3;75;97530;;;;
2022/04/02 13:02:34;;;;;;;12.5;16.7;;;;;;;1.1;75.1;97540;;;;
2022/04/02 13:12:34;;;;;;;12.5;16.7;;;;;;;0.9;74.5;97550;;;;
2022/04/02 13:23:34;;;;;;;12.5;16.7;;;;;;;0.9;75.1;97560;;;;
2022/04/02 13:34:34;;;;;;;12.4;17.5;;;;;;;0.7;75.2;97560;;;;
2022/04/02 13:45:34;;;;;;;12.4;17.5;;;;;;;0.6;76.7;97580;;;;
2022/04/02 13:56:34;;;;;;;12.4;17.5;;;;;;;0.5;76.8;97580;;;;
2022/04/02 14:07:34;;;;;;;19.5;25.5;;;;;;;0.5;76.8;97600;;;;
2022/04/02 14:17:34;;;;;;;19.5;25.5;;;;;;;0.4;76.2;97600;;;;
2022/04/02 14:28:34;;;;;;;13.2;18.4;;;;;;;0.3;76.4;97600;;;;
2022/04/02 14:38:34;;;;;;;13.2;18.4;;;;;;;0.4;76.6;97600;;;;
2022/04/02 14:48:35;;;;;;;13.2;18.4;;;;;;;0.3;76.9;97610;;;;
2022/04/02 14:58:34;;;;;;;13.2;17.1;;;;;;;0.4;76;97620;;;;
2022/04/02 15:08:34;;;;;;;13.2;17.1;;;;;;;0.3;75.7;97630;;;;
2022/04/02 15:19:34;;;;;;;13.2;17.1;;;;;;;0.4;76.2;97640;;;;
2022/04/02 15:29:34;;;;;;;13.5;17.5;;;;;;;0.5;76.1;97640;;;;
2022/04/02 15:40:34;;;;;;;13.5;17.5;;;;;;;0.6;76.1;97660;;;;
2022/04/02 15:50:35;;;;;;;13.5;17.5;;;;;;;0.6;76.7;97660;;;;
2022/04/02 16:00:34;;;;;;;12.6;18.3;;;;;;;0.5;77.7;97670;;;;
2022/04/02 16:10:34;;;;;;;12.6;18.3;;;;;;;0.5;78.1;97680;;;;
2022/04/02 16:20:34;;;;;;;12.6;18.3;;;;;;;0.6;78.4;97690;;;;
2022/04/02 16:31:37;;;;;;;16.9;22.2;;;;;;;0.6;78.9;97700;;;;
2022/04/02 16:41:34;;;;;;;16.9;22.2;;;;;;;0.5;80.1;97710;;;;
2022/04/02 16:52:34;;;;;;;16.9;22.2;;;;;;;0.4;81.2;97710;;;;
2022/04/02 17:03:34;;;;;;;25.9;31.8;;;;;;;0.4;81.8;97720;;;;
2022/04/02 17:13:34;;;;;;;25.9;31.8;;;;;;;0.4;81.8;97730;;;;
2022/04/02 17:23:34;;;;;;;25.9;31.8;;;;;;;0.3;82.2;97740;;;;
2022/04/02 17:34:34;;;;;;;27.4;34.2;;;;;;;0.2;82.8;97760;;;;
2022/04/02 17:44:34;;;;;;;27.4;34.2;;;;;;;0;83.5;97770;;;;
2022/04/02 17:55:34;;;;;;;27.4;34.2;;;;;;;0;83.9;97780;;;;
2022/04/02 18:05:34;;;;;;;29.1;37.2;;;;;;;0;84.1;97780;;;;
2022/04/02 18:16:34;;;;;;;29.1;37.2;;;;;;;0.2;84.1;97790;;;;
2022/04/02 18:26:34;;;;;;;36.5;47.7;;;;;;;0.2;84.2;97800;;;;
2022/04/02 18:37:34;;;;;;;36.5;47.7;;;;;;;0.1;84.5;97810;;;;
2022/04/02 18:47:34;;;;;;;36.5;47.7;;;;;;;0.1;84.7;97810;;;;
2022/04/02 18:57:34;;;;;;;34.2;43.1;;;;;;;0.2;84.8;97820;;;;
2022/04/02 19:08:34;;;;;;;34.2;43.1;;;;;;;0.2;85;97830;;;;
2022/04/02 19:18:34;;;;;;;34.2;43.1;;;;;;;0.3;84.9;97840;;;;
2022/04/02 19:28:34;;;;;;;41.1;52.5;;;;;;;0.3;84.9;97850;;;;
2022/04/02 19:39:34;;;;;;;41.1;52.5;;;;;;;0.4;84.9;97850;;;;
2022/04/02 19:49:34;;;;;;;41.1;52.5;;;;;;;0.3;85.1;97850;;;;
2022/04/02 20:00:34;;;;;;;50.8;60.6;;;;;;;0.3;85.4;97850;;;;
2022/04/02 20:10:34;;;;;;;50.8;60.6;;;;;;;0.4;85.3;97850;;;;
2022/04/02 20:21:34;;;;;;;50.8;60.6;;;;;;;0.5;85;97850;;;;
2022/04/02 20:31:34;;;;;;;41.8;51.2;;;;;;;0.6;84.6;97850;;;;
2022/04/02 20:41:34;;;;;;;41.8;51.2;;;;;;;0.6;84.4;97850;;;;
2022/04/02 20:52:34;;;;;;;41.8;51.2;;;;;;;0.7;84.2;97870;;;;
2022/04/02 21:02:34;;;;;;;21.3;25.2;;;;;;;0.8;83.9;97870;;;;
2022/04/02 21:12:34;;;;;;;21.3;25.2;;;;;;;0.8;83.8;97880;;;;
2022/04/02 21:23:34;;;;;;;21.3;25.2;;;;;;;0.7;83.7;97880;;;;
2022/04/02 21:33:34;;;;;;;22.7;28.8;;;;;;;0.8;83.8;97880;;;;
2022/04/02 21:43:34;;;;;;;22.7;28.8;;;;;;;0.7;83.8;97880;;;;
2022/04/02 21:53:34;;;;;;;22.7;28.8;;;;;;;0.7;83.9;97890;;;;
2022/04/02 22:04:34;;;;;;;20.6;26.3;;;;;;;0.7;83.9;97890;;;;
2022/04/02 22:15:37;;;;;;;20.6;26.3;;;;;;;0.7;84.2;97890;;;;
2022/04/02 22:26:36;;;;;;;36.1;41.9;;;;;;;0.7;84;97900;;;;
2022/04/02 22:37:34;;;;;;;36.1;41.9;;;;;;;0.7;84.6;97910;;;;
2022/04/02 22:48:34;;;;;;;36.1;41.9;;;;;;;0.7;84.8;97900;;;;
2022/04/02 22:58:34;;;;;;;30.3;37.1;;;;;;;0.7;84;97900;;;;
2022/04/02 23:08:34;;;;;;;30.3;37.1;;;;;;;0.8;83.6;97910;;;;
2022/04/02 23:19:34;;;;;;;30.3;37.1;;;;;;;0.7;83.7;97920;;;;
2022/04/02 23:29:34;;;;;;;17.8;22.7;;;;;;;0.6;84.3;97930;;;;
2022/04/02 23:40:34;;;;;;;17.8;22.7;;;;;;;0.5;84.5;97930;;;;
2022/04/02 23:50:34;;;;;;;17.8;22.7;;;;;;;0.5;84.8;97930;;;;
